Airfield :
LOGIN :

Register | Disclaimer

   EN    FR    IT 

 










Legend :    VFR   Marginal VFR   IFR   Intensive IFR   Very Intensive IFR
Visi :
Ceiling :
>= 8 km
>= 3000ft
5 to 8 km
1000 to 3000 ft
1500m to 5 km
500 to 1000 ft
800 to 1500m
200 to 500 ft
< 800m
< 200 ft
Symbols :   Thunderstorms  Fog  Heavy snow  Heavy precipitations  Wind > 20 kt
SIGMETs :     Misc.  Thunderstorms  Icing  Turbulence  Mountain Waves  Volcanic Ashes







- Airport Elevation : 821 ft
- IATA code : LYS
- Download approach charts


LFLL - Lyon St Exupéry / Satolas

CURRENT METAR :
  • 211200Z 02005KT 320V060 CAVOK 30/16 Q1017 NOSIG

EXPIRED METARs :
  • 211130Z 35007KT 300V060 9999 SCT050 29/16 Q1018 NOSIG
  • 211100Z 01006KT 330V060 9999 SCT043 29/17 Q1018 NOSIG
  • 211030Z 35006KT 290V040 9999 FEW040 28/18 Q1018 NOSIG
  • 211000Z 35005KT 300V020 9999 FEW040 SCT053 27/17 Q1018 NOSIG
  • 210930Z 35004KT 300V090 CAVOK 27/17 Q1018 NOSIG

TAF TAF LFLL
Valid from the 21 at 12:00 until the 22 at 18:00 UTC


211100Z 2112/2218 36010KT CAVOK
PROB30
TEMPO 2112/2115 FEW045TCU
TEMPO 2118/2124 36015G25KT
BECMG 2207/2209 36015G25KT
TEMPO 2210/2218 36020G30KT
No reported NOTAMs for that airfield.



MET'MAP, your aeronautical weather chart ! - Copyright ORBIFLY December 2007 - Disclaimer

ORBIFLY MET'MAP TEAM :

Programming & Development : Alexandra Zaïnal
Concept & Development : Baudouin d'Aumeries
Co-Development & Prog : Marc-Olivier Méhu
Technical & hardware support : Manuel Goepfert

Contact : metmap@orbifly.com




SOURCES & CREDITS :

   NOAA